createdAt,value
2022-12-28T00:01:41.302Z,2.53
2022-12-28T00:04:34.989Z,2.51
2022-12-28T00:07:26.824Z,2.48
2022-12-28T00:10:18.873Z,2.51
2022-12-28T00:13:32.035Z,2.57
2022-12-28T00:16:30.206Z,2.63
2022-12-28T00:19:22.321Z,2.65
2022-12-28T00:22:14.229Z,2.65
2022-12-28T00:25:06.778Z,2.64
2022-12-28T00:27:58.709Z,2.63
2022-12-28T00:30:50.925Z,2.59
2022-12-28T00:33:43.202Z,2.61
2022-12-28T00:38:06.100Z,2.68
2022-12-28T00:42:09.942Z,2.66
2022-12-28T00:45:02.318Z,2.66
2022-12-28T00:47:54.601Z,2.65
2022-12-28T00:50:46.337Z,2.65
2022-12-28T00:53:33.279Z,2.62
2022-12-28T00:56:25.473Z,2.62
2022-12-28T00:59:17.570Z,2.66
2022-12-28T01:02:09.338Z,2.71
2022-12-28T01:05:01.548Z,2.71
2022-12-28T01:07:53.690Z,2.65
2022-12-28T01:10:49.851Z,2.62
2022-12-28T01:13:41.869Z,2.54
2022-12-28T01:16:36.397Z,2.46
2022-12-28T01:19:28.310Z,2.37
2022-12-28T01:22:20.005Z,2.30
2022-12-28T01:25:06.886Z,2.20
2022-12-28T01:28:01.422Z,2.15
2022-12-28T01:30:53.294Z,2.20
2022-12-28T01:33:46.357Z,2.21
2022-12-28T01:36:38.878Z,2.16
2022-12-28T01:40:09.295Z,2.11
2022-12-28T01:43:36.494Z,2.01
2022-12-28T01:46:38.711Z,1.93
2022-12-28T01:49:37.275Z,1.86
2022-12-28T01:52:35.143Z,1.83
2022-12-28T01:55:33.924Z,1.85
2022-12-28T01:58:28.971Z,1.89
2022-12-28T02:02:14.651Z,1.93
2022-12-28T02:05:02.883Z,1.95
2022-12-28T02:07:59.944Z,1.89
2022-12-28T02:10:48.263Z,1.85
2022-12-28T02:13:35.856Z,1.79
2022-12-28T02:16:22.956Z,1.69
2022-12-28T02:19:14.008Z,1.60
2022-12-28T02:22:17.348Z,1.52
2022-12-28T02:25:32.731Z,1.45
2022-12-28T02:29:07.537Z,1.43
2022-12-28T02:32:00.910Z,1.39
2022-12-28T02:35:12.929Z,1.35
2022-12-28T02:38:07.681Z,1.25
2022-12-28T02:41:08.987Z,1.17
2022-12-28T02:43:56.122Z,1.06
2022-12-28T02:47:03.481Z,0.96
2022-12-28T02:50:07.740Z,0.98
2022-12-28T02:53:14.841Z,1.00
2022-12-28T02:56:28.109Z,0.95
2022-12-28T02:59:37.199Z,0.89
2022-12-28T03:02:29.499Z,0.85
2022-12-28T03:05:58.451Z,0.78
2022-12-28T03:09:17.466Z,0.67
2022-12-28T03:12:08.473Z,0.58
2022-12-28T03:15:04.318Z,0.57
2022-12-28T03:18:10.942Z,0.57
2022-12-28T03:21:20.604Z,0.55
2022-12-28T03:24:29.421Z,0.47
2022-12-28T03:27:37.448Z,0.40
2022-12-28T03:30:43.848Z,0.32
2022-12-28T03:33:31.182Z,0.29
2022-12-28T03:36:22.449Z,0.33
2022-12-28T03:39:28.096Z,0.38
2022-12-28T03:42:43.323Z,0.42
2022-12-28T03:45:47.529Z,0.46
2022-12-28T03:48:37.565Z,0.44
2022-12-28T03:51:26.519Z,0.40
2022-12-28T03:54:18.271Z,0.37
2022-12-28T03:57:05.397Z,0.37
2022-12-28T03:59:55.676Z,0.43
2022-12-28T04:02:43.435Z,0.47
2022-12-28T04:05:30.622Z,0.48
2022-12-28T04:08:18.590Z,0.42
2022-12-28T04:11:05.737Z,0.36
2022-12-28T04:13:53.371Z,0.26
2022-12-28T04:16:41.809Z,0.21
2022-12-28T04:19:29.187Z,0.12
2022-12-28T04:22:16.722Z,0.08
2022-12-28T04:25:03.747Z,0.08
2022-12-28T04:27:50.829Z,0.13
2022-12-28T04:31:03.784Z,0.21
2022-12-28T04:33:50.906Z,0.20
2022-12-28T04:36:39.429Z,0.16
2022-12-28T04:39:55.396Z,0.10
2022-12-28T04:42:36.151Z,0.04
2022-12-28T04:45:23.458Z,-0.04
2022-12-28T04:48:10.140Z,-0.00
2022-12-28T04:50:57.371Z,0.05
2022-12-28T04:53:44.736Z,0.07
2022-12-28T04:56:32.123Z,0.10
2022-12-28T04:59:19.180Z,0.08
2022-12-28T05:02:07.610Z,0.04
2022-12-28T05:04:54.679Z,-0.06
2022-12-28T05:07:41.837Z,-0.09
2022-12-28T05:10:30.004Z,-0.05
2022-12-28T05:13:17.298Z,-0.03
2022-12-28T05:16:07.109Z,-0.05
2022-12-28T05:18:56.815Z,-0.09
2022-12-28T05:21:43.782Z,-0.11
2022-12-28T05:24:30.880Z,-0.14
2022-12-28T05:27:17.445Z,-0.18
2022-12-28T05:30:04.985Z,-0.23
2022-12-28T05:32:51.751Z,-0.23
2022-12-28T05:35:38.676Z,-0.17
2022-12-28T05:38:25.480Z,-0.12
2022-12-28T05:41:19.762Z,-0.09
2022-12-28T05:44:06.793Z,-0.12
2022-12-28T05:46:53.568Z,-0.19
2022-12-28T05:49:40.060Z,-0.29
2022-12-28T05:52:28.918Z,-0.36
2022-12-28T05:55:16.165Z,-0.39
2022-12-28T05:58:02.819Z,-0.37
2022-12-28T06:00:49.587Z,-0.33
2022-12-28T06:03:37.358Z,-0.25
2022-12-28T06:06:24.848Z,-0.19
2022-12-28T06:09:12.409Z,-0.13
2022-12-28T06:11:59.690Z,-0.17
2022-12-28T06:14:46.933Z,-0.23
2022-12-28T06:17:33.694Z,-0.26
2022-12-28T06:20:20.415Z,-0.31
2022-12-28T06:23:07.127Z,-0.41
2022-12-28T06:25:53.676Z,-0.47
2022-12-28T06:28:41.434Z,-0.45
2022-12-28T06:31:35.569Z,-0.39
2022-12-28T06:34:22.467Z,-0.31
2022-12-28T06:37:09.447Z,-0.29
2022-12-28T06:39:56.385Z,-0.30
2022-12-28T06:42:43.887Z,-0.38
2022-12-28T06:45:30.772Z,-0.39
2022-12-28T06:48:17.295Z,-0.48
2022-12-28T06:51:11.366Z,-0.44
2022-12-28T06:53:58.267Z,-0.43
2022-12-28T06:56:45.164Z,-0.37
2022-12-28T06:59:31.863Z,-0.25
2022-12-28T07:02:19.740Z,-0.20
2022-12-28T07:05:06.848Z,-0.17
2022-12-28T07:07:53.484Z,-0.16
2022-12-28T07:10:40.697Z,-0.19
2022-12-28T07:13:28.482Z,-0.18
2022-12-28T07:16:21.261Z,-0.12
2022-12-28T07:19:08.471Z,-0.08
2022-12-28T07:21:55.427Z,0.01
2022-12-28T07:24:42.100Z,0.02
2022-12-28T07:27:29.116Z,0.06
2022-12-28T07:30:15.782Z,0.11
2022-12-28T07:33:02.553Z,0.17
2022-12-28T07:35:49.519Z,0.17
2022-12-28T07:38:36.665Z,0.18
2022-12-28T07:41:26.443Z,0.22
2022-12-28T07:44:13.284Z,0.33
2022-12-28T07:47:00.101Z,0.44
2022-12-28T07:49:46.699Z,0.52
2022-12-28T07:52:35.362Z,0.59
2022-12-28T07:55:22.030Z,0.63
2022-12-28T07:58:08.693Z,0.64
2022-12-28T08:01:02.720Z,0.63
2022-12-28T08:03:54.639Z,0.69
2022-12-28T08:06:42.377Z,0.74
2022-12-28T08:09:29.095Z,0.85
2022-12-28T08:12:15.928Z,0.98
2022-12-28T08:15:02.852Z,1.05
2022-12-28T08:17:49.632Z,1.14
2022-12-28T08:20:38.039Z,1.25
2022-12-28T08:23:24.951Z,1.35
2022-12-28T08:26:19.104Z,1.39
2022-12-28T08:29:09.546Z,1.50
2022-12-28T08:31:56.396Z,1.62
2022-12-28T08:34:43.271Z,1.74
2022-12-28T08:37:30.254Z,1.80
2022-12-28T08:40:17.295Z,1.83
2022-12-28T08:43:04.135Z,1.89
2022-12-28T08:46:02.642Z,1.91
2022-12-28T08:48:50.701Z,2.00
2022-12-28T08:51:41.246Z,2.08
2022-12-28T08:54:28.435Z,2.16
2022-12-28T08:57:15.041Z,2.25
2022-12-28T09:00:01.910Z,2.37
2022-12-28T09:02:48.881Z,2.49
2022-12-28T09:05:39.884Z,2.52
2022-12-28T09:08:26.939Z,2.50
2022-12-28T09:11:14.205Z,2.53
2022-12-28T09:14:02.128Z,2.57
2022-12-28T09:16:49.512Z,2.59
2022-12-28T09:19:36.416Z,2.68
2022-12-28T09:22:23.308Z,2.68
2022-12-28T09:25:10.149Z,2.68
2022-12-28T09:27:59.506Z,2.72
2022-12-28T09:30:46.593Z,2.78
2022-12-28T09:34:33.752Z,2.81
2022-12-28T09:36:59.838Z,2.85
2022-12-28T09:39:47.489Z,2.88
2022-12-28T09:42:38.316Z,2.87
2022-12-28T09:45:26.626Z,2.82
2022-12-28T09:48:19.267Z,2.78
2022-12-28T09:51:06.166Z,2.75
2022-12-28T09:53:53.068Z,2.77
2022-12-28T09:56:42.827Z,2.79
2022-12-28T09:59:34.858Z,2.83
2022-12-28T10:02:33.763Z,2.87
2022-12-28T10:05:22.124Z,2.98
2022-12-28T10:08:12.565Z,3.04
2022-12-28T10:11:02.351Z,3.09
2022-12-28T10:14:00.322Z,3.15
2022-12-28T10:16:48.934Z,3.19
2022-12-28T10:19:36.408Z,3.18
2022-12-28T10:22:25.350Z,3.15
2022-12-28T10:25:19.328Z,3.11
2022-12-28T10:28:08.059Z,3.12
2022-12-28T10:31:07.996Z,3.14
2022-12-28T10:33:54.653Z,3.19
2022-12-28T10:36:42.049Z,3.20
2022-12-28T10:39:30.882Z,3.16
2022-12-28T10:42:25.802Z,3.12
2022-12-28T10:45:26.463Z,3.17
2022-12-28T10:48:18.570Z,3.22
2022-12-28T10:51:13.394Z,3.28
2022-12-28T10:54:00.747Z,3.36
2022-12-28T10:56:49.769Z,3.37
2022-12-28T10:59:39.119Z,3.41
2022-12-28T11:02:30.135Z,3.39
2022-12-28T11:05:23.537Z,3.47
2022-12-28T11:08:16.616Z,3.57
2022-12-28T11:11:04.066Z,3.68
2022-12-28T11:13:56.705Z,3.73
2022-12-28T11:16:44.435Z,3.81
2022-12-28T11:19:31.308Z,3.85
2022-12-28T11:22:24.230Z,3.90
2022-12-28T11:25:19.738Z,3.94
2022-12-28T11:28:14.400Z,3.96
2022-12-28T11:31:03.681Z,4.03
2022-12-28T11:33:54.984Z,4.13
2022-12-28T11:36:42.254Z,4.25
2022-12-28T11:39:30.467Z,4.35
2022-12-28T11:42:40.635Z,4.43
2022-12-28T11:45:52.190Z,4.97
2022-12-28T11:48:41.971Z,5.66
2022-12-28T11:51:34.701Z,5.97
2022-12-28T11:54:40.123Z,6.27
2022-12-28T11:57:42.291Z,6.47
2022-12-28T12:00:38.069Z,6.52
2022-12-28T12:03:56.869Z,6.56
2022-12-28T12:06:43.860Z,6.44
2022-12-28T12:09:32.733Z,6.41
2022-12-28T12:12:19.673Z,6.66
2022-12-28T12:15:13.124Z,7.48
2022-12-28T12:18:04.583Z,8.37
2022-12-28T12:21:13.297Z,8.88
2022-12-28T12:24:18.725Z,9.48
2022-12-28T12:27:15.614Z,9.64
2022-12-28T12:30:06.607Z,9.54
2022-12-28T12:32:59.903Z,9.08
2022-12-28T12:36:14.031Z,8.60
2022-12-28T12:39:32.327Z,8.40
2022-12-28T12:42:28.555Z,-46.40
2022-12-28T12:45:48.374Z,-128.00
2022-12-28T12:49:14.515Z,-128.00
2022-12-28T12:52:20.384Z,-128.00
2022-12-28T12:55:22.578Z,-128.00
2022-12-28T12:58:31.018Z,-128.00
2022-12-28T13:01:37.720Z,-128.00
2022-12-28T13:04:29.237Z,-128.00
2022-12-28T13:07:27.693Z,-128.00
2022-12-28T13:10:23.169Z,-128.00
2022-12-28T13:13:20.879Z,-128.00
2022-12-28T13:16:11.211Z,-128.00
2022-12-28T13:19:05.360Z,-128.00
2022-12-28T13:21:53.595Z,-128.00
2022-12-28T13:24:46.256Z,-128.00
2022-12-28T13:27:36.378Z,-128.00
2022-12-28T13:30:25.009Z,-128.00
2022-12-28T13:33:21.060Z,-128.00
2022-12-28T13:36:13.865Z,-128.00
2022-12-28T13:39:20.506Z,-128.00
2022-12-28T13:42:18.031Z,-128.00
2022-12-28T13:45:12.489Z,-128.00
2022-12-28T13:48:01.353Z,-128.00
2022-12-28T13:50:49.927Z,-128.00
2022-12-28T13:53:37.081Z,-74.55
2022-12-28T13:56:24.398Z,-21.16
2022-12-28T13:59:16.112Z,-128.00
2022-12-28T14:02:04.449Z,-128.00
2022-12-28T14:04:54.097Z,-128.00
2022-12-28T14:07:41.671Z,-128.00
2022-12-28T14:10:28.649Z,-128.00
2022-12-28T14:13:18.290Z,-128.00
2022-12-28T14:16:08.306Z,-128.00
2022-12-28T14:18:55.226Z,-128.00
2022-12-28T14:21:45.216Z,-128.00
2022-12-28T14:24:32.125Z,-128.00
2022-12-28T14:27:21.031Z,-128.00
2022-12-28T14:30:21.167Z,-128.00
2022-12-28T14:33:24.653Z,-128.00
2022-12-28T14:36:21.953Z,-128.00
2022-12-28T14:39:23.564Z,-128.00
2022-12-28T14:42:24.404Z,-128.00
2022-12-28T14:46:07.300Z,-128.00
2022-12-28T14:48:53.485Z,-128.00
2022-12-28T14:51:44.242Z,-128.00
2022-12-28T14:54:32.767Z,-128.00
2022-12-28T14:57:22.979Z,-128.00
2022-12-28T15:00:16.445Z,-128.00
2022-12-28T15:03:19.980Z,-128.00
2022-12-28T15:06:07.194Z,-128.00
2022-12-28T15:08:55.602Z,-128.00
2022-12-28T15:11:42.823Z,-128.00
2022-12-28T15:14:29.931Z,-128.00
2022-12-28T15:17:17.745Z,-128.00
2022-12-28T15:20:05.326Z,-128.00
2022-12-28T15:22:53.843Z,-128.00
2022-12-28T15:25:41.430Z,-128.00
2022-12-28T15:28:29.878Z,-128.00
2022-12-28T15:31:20.143Z,-128.00
2022-12-28T15:34:06.741Z,-128.00
2022-12-28T15:36:53.673Z,-128.00
2022-12-28T15:39:40.651Z,-128.00
2022-12-28T15:42:27.578Z,-128.00
2022-12-28T15:45:15.659Z,-128.00
2022-12-28T15:48:03.732Z,-128.00
2022-12-28T15:50:51.154Z,-128.00
2022-12-28T15:53:38.086Z,-128.00
2022-12-28T15:56:27.972Z,-128.00
2022-12-28T15:59:15.330Z,-128.00
2022-12-28T16:02:02.855Z,-128.00
2022-12-28T16:04:49.898Z,-128.00
2022-12-28T16:07:37.122Z,-128.00
2022-12-28T16:10:24.092Z,-128.00
2022-12-28T16:13:10.979Z,-128.00
2022-12-28T16:16:04.406Z,-128.00
2022-12-28T16:18:55.055Z,-128.00
2022-12-28T16:21:42.570Z,-128.00
2022-12-28T16:24:29.612Z,-128.00
2022-12-28T16:27:16.350Z,-128.00
2022-12-28T16:30:04.373Z,-128.00
2022-12-28T16:32:51.549Z,-128.00
2022-12-28T16:35:38.699Z,-128.00
2022-12-28T16:38:28.096Z,-128.00
2022-12-28T16:41:14.861Z,-128.00
2022-12-28T16:44:04.909Z,-128.00
2022-12-28T16:46:51.872Z,-128.00
2022-12-28T16:49:40.334Z,-128.00
2022-12-28T16:52:37.005Z,-128.00
2022-12-28T16:55:23.961Z,-128.00
2022-12-28T16:58:10.376Z,-128.00
2022-12-28T17:00:57.731Z,-128.00
2022-12-28T17:03:44.723Z,-128.00
2022-12-28T17:06:31.927Z,-128.00
2022-12-28T17:09:19.709Z,-128.00
2022-12-28T17:12:06.538Z,-128.00
2022-12-28T17:14:53.243Z,-128.00
2022-12-28T17:17:39.956Z,-128.00
2022-12-28T17:20:27.620Z,-128.00
2022-12-28T17:23:14.642Z,-128.00
2022-12-28T17:26:01.130Z,-128.00
2022-12-28T17:28:47.917Z,-128.00
2022-12-28T17:31:34.687Z,-128.00
2022-12-28T17:34:21.666Z,-128.00
2022-12-28T17:37:08.361Z,-128.00
2022-12-28T17:39:56.276Z,-128.00
2022-12-28T17:42:43.017Z,-128.00
2022-12-28T17:45:30.013Z,-128.00
2022-12-28T17:48:17.476Z,-128.00
2022-12-28T17:51:11.011Z,-128.00
2022-12-28T17:53:58.218Z,-128.00
2022-12-28T17:56:44.944Z,-128.00
2022-12-28T17:59:31.991Z,-128.00
2022-12-28T18:02:19.049Z,-128.00
2022-12-28T18:05:06.516Z,-128.00
2022-12-28T18:07:53.286Z,-128.00
2022-12-28T18:10:40.295Z,-128.00
2022-12-28T18:13:27.179Z,-128.00
2022-12-28T18:16:16.855Z,-128.00
2022-12-28T18:19:04.186Z,-128.00
2022-12-28T18:21:51.207Z,-128.00
2022-12-28T18:24:38.213Z,-128.00
2022-12-28T18:27:24.893Z,-128.00
2022-12-28T18:30:12.359Z,-128.00
2022-12-28T18:32:59.746Z,-128.00
2022-12-28T18:35:46.977Z,-128.00
2022-12-28T18:38:35.636Z,-128.00
2022-12-28T18:41:22.424Z,-128.00
2022-12-28T18:44:09.259Z,-128.00
2022-12-28T18:46:56.317Z,-128.00
2022-12-28T18:49:47.105Z,-128.00
2022-12-28T18:52:35.838Z,-128.00
2022-12-28T18:55:22.519Z,-128.00
2022-12-28T18:58:09.461Z,-128.00
2022-12-28T19:01:06.707Z,-128.00
2022-12-28T19:03:56.253Z,-128.00
2022-12-28T19:06:43.866Z,-128.00
2022-12-28T19:09:31.014Z,-128.00
2022-12-28T19:12:17.703Z,-128.00
2022-12-28T19:15:05.989Z,-128.00
2022-12-28T19:17:53.256Z,-128.00
2022-12-28T19:20:40.638Z,-128.00
2022-12-28T19:23:27.341Z,-128.00
2022-12-28T19:26:14.606Z,-128.00
2022-12-28T19:29:02.930Z,-128.00
2022-12-28T19:31:49.984Z,-128.00
2022-12-28T19:34:36.988Z,-128.00
2022-12-28T19:37:24.248Z,-128.00
2022-12-28T19:40:11.382Z,-128.00
2022-12-28T19:42:58.473Z,-128.00
2022-12-28T19:45:45.256Z,-128.00
2022-12-28T19:48:31.963Z,-128.00
2022-12-28T19:51:18.714Z,-128.00
2022-12-28T19:54:05.725Z,-128.00
2022-12-28T19:56:52.578Z,-128.00
2022-12-28T19:59:39.344Z,-128.00
2022-12-28T20:02:26.544Z,-128.00
2022-12-28T20:05:13.999Z,-128.00
2022-12-28T20:08:00.854Z,-128.00
2022-12-28T20:10:56.255Z,-128.00
2022-12-28T20:13:43.533Z,-128.00
2022-12-28T20:16:33.752Z,-128.00
2022-12-28T20:19:20.985Z,-128.00
2022-12-28T20:22:07.762Z,-128.00
2022-12-28T20:24:54.732Z,-128.00
2022-12-28T20:27:41.782Z,-128.00
2022-12-28T20:30:30.557Z,-128.00
2022-12-28T20:33:19.327Z,-128.00
2022-12-28T20:36:08.873Z,-128.00
2022-12-28T20:38:57.076Z,-128.00
2022-12-28T20:42:02.672Z,-128.00
2022-12-28T20:44:50.028Z,-128.00
2022-12-28T20:47:36.639Z,-128.00
2022-12-28T20:50:23.578Z,-128.00
2022-12-28T20:53:10.803Z,-128.00
2022-12-28T20:56:09.074Z,-128.00
2022-12-28T20:58:56.308Z,-128.00
2022-12-28T21:01:43.908Z,-128.00
2022-12-28T21:04:30.993Z,-128.00
2022-12-28T21:07:19.646Z,-128.00
2022-12-28T21:10:07.139Z,-128.00
2022-12-28T21:12:54.144Z,-128.00
2022-12-28T21:15:41.592Z,-128.00
2022-12-28T21:18:28.526Z,-128.00
2022-12-28T21:21:17.393Z,-128.00
2022-12-28T21:24:04.476Z,-128.00
2022-12-28T21:26:51.118Z,-128.00
2022-12-28T21:29:38.109Z,-128.00
2022-12-28T21:32:24.970Z,-128.00
2022-12-28T21:35:11.880Z,-128.00
2022-12-28T21:37:58.873Z,-128.00
2022-12-28T21:40:45.702Z,-128.00
2022-12-28T21:43:32.974Z,-128.00
2022-12-28T21:46:19.868Z,-128.00
2022-12-28T21:49:07.203Z,-128.00
2022-12-28T21:51:59.382Z,-128.00
2022-12-28T21:54:46.361Z,-128.00
2022-12-28T21:57:33.544Z,-128.00
2022-12-28T22:00:39.603Z,-128.00
2022-12-28T22:03:45.295Z,-128.00
2022-12-28T22:06:32.750Z,-128.00
2022-12-28T22:09:38.155Z,-128.00
2022-12-28T22:12:35.700Z,-128.00
2022-12-28T22:15:44.751Z,-128.00
2022-12-28T22:21:38.892Z,-128.00
2022-12-28T22:24:25.863Z,-128.00
2022-12-28T22:27:12.473Z,-128.00
2022-12-28T22:29:59.265Z,-128.00
2022-12-28T22:32:46.296Z,-128.00
2022-12-28T22:35:33.507Z,-128.00
2022-12-28T22:38:20.698Z,-128.00
2022-12-28T22:41:07.899Z,-128.00
2022-12-28T22:43:54.827Z,-128.00
2022-12-28T22:46:41.812Z,-128.00
2022-12-28T22:49:28.660Z,-128.00
2022-12-28T22:52:15.398Z,-128.00
2022-12-28T22:55:02.318Z,-128.00
2022-12-28T22:57:49.085Z,-128.00
2022-12-28T23:00:35.981Z,-128.00
2022-12-28T23:03:23.373Z,-128.00
2022-12-28T23:06:12.749Z,-128.00
2022-12-28T23:09:00.571Z,-128.00
2022-12-28T23:11:47.758Z,-128.00
2022-12-28T23:14:53.773Z,-128.00
2022-12-28T23:17:41.153Z,-128.00
2022-12-28T23:20:46.614Z,-128.00
2022-12-28T23:23:52.481Z,-128.00
2022-12-28T23:26:58.155Z,-128.00
2022-12-28T23:29:46.009Z,-128.00
2022-12-28T23:32:32.784Z,-128.00
2022-12-28T23:35:20.742Z,-128.00
2022-12-28T23:38:07.817Z,-128.00
2022-12-28T23:41:14.848Z,-128.00
2022-12-28T23:44:02.022Z,-128.00
2022-12-28T23:46:55.256Z,-128.00
2022-12-28T23:49:46.208Z,-128.00
2022-12-28T23:52:33.403Z,-128.00
2022-12-28T23:55:20.377Z,-128.00
2022-12-28T23:58:07.235Z,-128.00
